Time;durP1;ratioP1;P1;durP2;ratioP2;P2;SDS_P1;SDS_P2;PMS_P1;PMS_P2;Temp;Humidity;BMP_temperature;BMP_pressure;BME280_temperature;BME280_humidity;BME280_pressure;Samples;Min_cycle;Max_cycle;Signal;HPM_P1;HPM_P2
2022/10/03 00:00:15;;;;;;;12.70;6.82;;;8.70;99.90;;;;;;5016688;28;20415;-74
2022/10/03 00:02:53;;;;;;;13.82;7.45;;;8.70;99.90;;;;;;5016512;28;20456;-69
2022/10/03 00:05:41;;;;;;;10.65;7.50;;;8.70;99.90;;;;;;5016620;28;20475;-69
2022/10/03 00:08:24;;;;;;;13.95;7.47;;;8.70;99.90;;;;;;5016445;28;20046;-69
2022/10/03 00:10:55;;;;;;;12.70;6.20;;;8.70;99.90;;;;;;4998879;28;20507;-73
2022/10/03 00:13:42;;;;;;;10.15;7.10;;;8.70;99.90;;;;;;5016371;28;20531;-68
2022/10/03 00:16:22;;;;;;;13.70;7.25;;;8.70;99.90;;;;;;5016527;28;20025;-68
2022/10/03 00:18:53;;;;;;;9.05;5.70;;;8.70;99.90;;;;;;5016253;28;20507;-69
2022/10/03 00:21:39;;;;;;;11.02;5.97;;;8.70;99.90;;;;;;4996794;28;20497;-74
2022/10/03 00:24:30;;;;;;;8.77;5.75;;;8.70;99.90;;;;;;5016281;28;20032;-73
2022/10/03 00:27:17;;;;;;;12.52;6.30;;;8.70;99.90;;;;;;5016653;28;20026;-74
2022/10/03 00:29:59;;;;;;;16.75;6.18;;;8.70;99.90;;;;;;5016075;28;20018;-73
2022/10/03 00:33:16;;;;;;;10.73;7.05;;;8.70;99.90;;;;;;5016250;28;20392;-69
2022/10/03 00:35:59;;;;;;;10.43;6.80;;;8.70;99.90;;;;;;4983106;28;20034;-74
2022/10/03 00:38:57;;;;;;;11.35;7.03;;;8.70;99.90;;;;;;5016092;28;20033;-69
2022/10/03 00:41:52;;;;;;;12.50;6.82;;;8.70;99.90;;;;;;5016129;28;20033;-69
2022/10/03 00:44:18;;;;;;;10.68;5.97;;;8.70;99.90;;;;;;5014585;28;20037;-74
2022/10/03 00:46:57;;;;;;;10.55;6.32;;;8.70;99.90;;;;;;5014499;28;20033;-69
2022/10/03 00:49:47;;;;;;;11.10;6.20;;;8.70;99.90;;;;;;5015234;28;20022;-69
2022/10/03 00:52:19;;;;;;;9.38;6.32;;;8.70;99.90;;;;;;5015781;28;20049;-73
2022/10/03 00:54:47;;;;;;;11.23;6.32;;;8.70;99.90;;;;;;5015607;28;20108;-68
2022/10/03 00:57:19;;;;;;;11.77;5.90;;;8.80;99.90;;;;;;5015762;28;20112;-69
2022/10/03 01:00:05;;;;;;;16.20;6.83;;;8.80;99.90;;;;;;5014053;28;20087;-68
2022/10/03 01:02:43;;;;;;;11.55;6.68;;;8.70;99.90;;;;;;5015451;28;20140;-69
2022/10/03 01:05:14;;;;;;;10.35;5.18;;;8.80;99.90;;;;;;5015590;28;20029;-73
2022/10/03 01:07:52;;;;;;;9.57;5.10;;;8.80;99.90;;;;;;5015542;28;20021;-69
2022/10/03 01:10:29;;;;;;;7.93;6.57;;;8.80;99.90;;;;;;5015388;28;20076;-73
2022/10/03 01:13:13;;;;;;;12.00;5.57;;;8.80;99.90;;;;;;5015447;28;20109;-69
2022/10/03 01:15:41;;;;;;;11.38;6.05;;;8.80;99.90;;;;;;5015542;28;20426;-68
2022/10/03 01:18:37;;;;;;;12.45;5.40;;;8.80;99.90;;;;;;5015329;28;20102;-73
2022/10/03 01:21:06;;;;;;;11.40;5.93;;;8.80;99.90;;;;;;5027183;28;20063;-73
2022/10/03 01:23:45;;;;;;;8.30;6.10;;;8.80;99.90;;;;;;5017162;28;20029;-69
2022/10/03 01:26:39;;;;;;;10.82;5.63;;;8.90;99.90;;;;;;5034981;28;20025;-68
2022/10/03 01:32:18;;;;;;;8.75;6.95;;;8.90;99.90;;;;;;5034750;28;20128;-68
2022/10/03 01:35:14;;;;;;;8.27;6.30;;;8.80;99.90;;;;;;5034760;28;20064;-73
2022/10/03 01:37:50;;;;;;;11.25;5.50;;;8.80;99.90;;;;;;5021183;28;20438;-70
2022/10/03 01:40:34;;;;;;;12.30;6.25;;;8.80;99.90;;;;;;5034368;28;20025;-73
2022/10/03 01:43:23;;;;;;;10.82;5.72;;;8.80;99.90;;;;;;5034624;28;20414;-68
2022/10/03 01:46:03;;;;;;;9.95;6.18;;;8.80;99.90;;;;;;5034493;28;20045;-74
2022/10/03 01:48:36;;;;;;;10.95;6.00;;;8.80;99.90;;;;;;5034544;28;20467;-74
2022/10/03 01:51:32;;;;;;;11.43;5.75;;;8.80;99.90;;;;;;5034370;28;20411;-69
2022/10/03 01:54:28;;;;;;;15.40;5.68;;;8.70;99.90;;;;;;5016586;28;20018;-68
2022/10/03 01:57:20;;;;;;;8.45;5.72;;;8.80;99.90;;;;;;5034366;28;20057;-73
2022/10/03 02:00:00;;;;;;;10.88;5.60;;;8.80;99.90;;;;;;5016489;28;20503;-68
2022/10/03 02:02:31;;;;;;;8.07;5.88;;;8.80;99.90;;;;;;5034354;28;20384;-69
2022/10/03 02:05:12;;;;;;;9.20;5.30;;;8.70;99.90;;;;;;5016299;28;20072;-68
2022/10/03 02:07:53;;;;;;;9.52;5.70;;;8.80;99.90;;;;;;5034241;28;20025;-68
2022/10/03 02:10:42;;;;;;;10.10;5.57;;;8.70;99.90;;;;;;5033882;28;20455;-73
2022/10/03 02:13:22;;;;;;;6.57;4.35;;;8.70;99.90;;;;;;5034110;28;20056;-68
2022/10/03 02:16:03;;;;;;;12.50;5.63;;;8.70;99.90;;;;;;5016073;28;20514;-69
2022/10/03 02:19:05;;;;;;;8.27;5.05;;;8.70;99.90;;;;;;5016316;28;20435;-74
2022/10/03 02:21:33;;;;;;;8.93;4.88;;;8.70;99.90;;;;;;5033971;28;20506;-68
2022/10/03 02:24:36;;;;;;;13.02;5.50;;;8.70;99.90;;;;;;5033777;28;20030;-71
2022/10/03 02:27:20;;;;;;;;;;;8.70;99.90;;;;;;5034361;28;20071;-73
2022/10/03 02:30:29;;;;;;;11.65;5.55;;;8.70;99.90;;;;;;5033656;28;19928;-71
2022/10/03 02:33:24;;;;;;;11.73;6.68;;;8.70;99.90;;;;;;5016271;28;20445;-73
2022/10/03 02:36:34;;;;;;;7.30;5.60;;;8.60;99.90;;;;;;5015998;28;20057;-73
2022/10/03 02:39:05;;;;;;;9.90;5.55;;;8.60;99.90;;;;;;5033733;28;20029;-68
2022/10/03 02:41:54;;;;;;;8.13;5.82;;;8.60;99.90;;;;;;5033591;28;20040;-68
2022/10/03 02:44:35;;;;;;;13.30;5.90;;;8.60;99.90;;;;;;5033450;28;20032;-74
2022/10/03 02:47:12;;;;;;;10.50;6.07;;;8.60;99.90;;;;;;5033403;28;20018;-68
2022/10/03 02:49:55;;;;;;;9.48;5.43;;;8.60;99.90;;;;;;5033576;28;20079;-73
2022/10/03 02:52:32;;;;;;;11.30;6.07;;;8.60;99.90;;;;;;5033386;28;20041;-73
2022/10/03 02:55:13;;;;;;;10.55;5.88;;;8.70;99.90;;;;;;5033140;28;20036;-74
2022/10/03 02:58:26;;;;;;;10.40;6.10;;;8.60;99.90;;;;;;5033549;28;20068;-73
2022/10/03 03:01:18;;;;;;;8.18;5.43;;;8.70;99.90;;;;;;5023214;28;20543;-73
2022/10/03 03:04:01;;;;;;;10.27;5.88;;;8.70;99.90;;;;;;5033302;28;20027;-73
2022/10/03 03:06:51;;;;;;;12.30;5.63;;;8.70;99.90;;;;;;5033448;28;20034;-68
2022/10/03 03:09:49;;;;;;;14.85;5.40;;;8.70;99.90;;;;;;5015493;28;20021;-68
2022/10/03 03:12:52;;;;;;;7.60;5.30;;;8.70;99.90;;;;;;4987996;28;20053;-68
2022/10/03 03:15:26;;;;;;;11.55;4.80;;;8.80;99.90;;;;;;5032974;28;20100;-68
2022/10/03 03:17:58;;;;;;;12.40;5.50;;;8.70;99.90;;;;;;5033254;28;20429;-68
2022/10/03 03:20:53;;;;;;;7.90;5.80;;;8.80;99.90;;;;;;5032857;28;20099;-73
2022/10/03 03:23:54;;;;;;;12.05;5.57;;;8.80;99.90;;;;;;5033213;28;20379;-68
2022/10/03 03:26:41;;;;;;;12.93;5.28;;;8.70;99.90;;;;;;5037072;28;20083;-73
2022/10/03 03:29:16;;;;;;;7.85;5.57;;;8.80;99.90;;;;;;5037169;28;20080;-73
2022/10/03 03:32:18;;;;;;;13.35;5.30;;;8.70;99.90;;;;;;5019147;28;20040;-68
2022/10/03 03:35:05;;;;;;;11.27;5.75;;;8.80;99.90;;;;;;5019279;28;20033;-68
2022/10/03 03:37:30;;;;;;;10.18;4.93;;;8.80;99.90;;;;;;5019286;28;20032;-68
2022/10/03 03:40:04;;;;;;;11.43;5.47;;;8.70;99.90;;;;;;5036900;28;20454;-73
2022/10/03 03:42:59;;;;;;;12.90;5.15;;;8.80;99.90;;;;;;5036844;28;20083;-73
2022/10/03 03:45:49;;;;;;;6.47;4.57;;;8.80;99.90;;;;;;5026855;28;20029;-68
2022/10/03 03:48:37;;;;;;;11.45;5.50;;;8.80;99.90;;;;;;5018983;28;20021;-73
2022/10/03 03:51:22;;;;;;;14.00;8.60;;;8.80;99.90;;;;;;5018865;28;20039;-73
2022/10/03 03:53:56;;;;;;;7.47;4.90;;;8.80;99.90;;;;;;5018938;28;20387;-73
2022/10/03 03:56:36;;;;;;;8.35;4.90;;;8.80;99.90;;;;;;5036292;28;20037;-68
2022/10/03 03:59:37;;;;;;;11.50;5.20;;;8.70;99.90;;;;;;5036494;28;20052;-68
2022/10/03 04:02:30;;;;;;;8.32;4.95;;;8.80;99.90;;;;;;5036421;28;20052;-73
2022/10/03 04:05:21;;;;;;;14.48;6.00;;;8.70;99.90;;;;;;5018684;28;20472;-73
2022/10/03 04:08:37;;;;;;;9.88;5.05;;;8.80;99.90;;;;;;5018643;28;20022;-73
2022/10/03 04:11:15;;;;;;;10.02;5.20;;;8.80;99.90;;;;;;5002517;28;20053;-68
2022/10/03 04:13:41;;;;;;;8.65;4.72;;;8.80;99.90;;;;;;5036139;28;20025;-73
2022/10/03 04:19:55;;;;;;;10.70;5.43;;;8.70;99.90;;;;;;5002771;28;20123;-73
2022/10/03 04:22:49;;;;;;;11.40;5.03;;;8.80;99.90;;;;;;5036076;28;20156;-68
2022/10/03 04:25:39;;;;;;;9.32;5.13;;;8.80;99.90;;;;;;5036263;28;20034;-68
2022/10/03 04:28:21;;;;;;;12.70;4.72;;;8.80;99.90;;;;;;5036273;28;20080;-69
2022/10/03 04:31:05;;;;;;;7.10;4.30;;;8.80;99.90;;;;;;5035979;28;20029;-69
2022/10/03 04:33:40;;;;;;;6.88;3.85;;;8.80;99.90;;;;;;5036019;28;20048;-74
2022/10/03 04:36:24;;;;;;;11.27;4.28;;;8.80;99.90;;;;;;5034707;28;20443;-68
2022/10/03 04:39:23;;;;;;;7.65;4.30;;;8.80;99.90;;;;;;5035861;28;20052;-68
2022/10/03 04:42:27;;;;;;;11.45;4.47;;;8.80;99.90;;;;;;5035791;28;20021;-73
2022/10/03 04:45:01;;;;;;;9.40;4.30;;;8.80;99.90;;;;;;5035755;28;20025;-68
2022/10/03 04:47:49;;;;;;;10.95;3.72;;;8.80;99.90;;;;;;5035639;28;20379;-74
2022/10/03 04:50:18;;;;;;;12.02;4.35;;;8.80;99.90;;;;;;5035536;28;20108;-73
2022/10/03 04:53:01;;;;;;;11.05;4.10;;;8.80;99.90;;;;;;5035315;28;20073;-73
2022/10/03 04:55:47;;;;;;;8.45;3.47;;;8.80;99.90;;;;;;5035511;28;20022;-74
2022/10/03 04:58:31;;;;;;;12.23;4.18;;;8.80;99.90;;;;;;5035553;28;20018;-68
2022/10/03 05:01:31;;;;;;;13.45;4.30;;;8.80;99.90;;;;;;5017766;28;20353;-68
2022/10/03 05:03:56;;;;;;;11.10;4.15;;;8.80;99.90;;;;;;5035293;28;20041;-73
2022/10/03 05:06:30;;;;;;;7.55;3.53;;;8.80;99.90;;;;;;5035368;28;20033;-74
2022/10/03 05:09:14;;;;;;;5.30;3.78;;;8.80;99.90;;;;;;5035200;28;20028;-69
2022/10/03 05:11:54;;;;;;;5.97;3.58;;;8.80;99.90;;;;;;5034807;28;20033;-69
2022/10/03 05:14:39;;;;;;;7.10;4.28;;;8.80;99.90;;;;;;5034902;28;20026;-70
2022/10/03 05:17:20;;;;;;;10.77;3.45;;;8.80;99.90;;;;;;5024111;28;20480;-75
2022/10/03 05:20:19;;;;;;;6.50;3.55;;;8.80;99.90;;;;;;5032921;28;20049;-75
2022/10/03 05:23:11;;;;;;;5.13;3.15;;;8.80;99.90;;;;;;5029944;28;20033;-74
2022/10/03 05:25:59;;;;;;;5.93;3.60;;;8.80;99.90;;;;;;5019776;28;20029;-74
2022/10/03 05:28:58;;;;;;;4.78;2.97;;;8.80;99.90;;;;;;5015598;28;20100;-70
2022/10/03 05:31:47;;;;;;;7.45;3.30;;;8.80;99.90;;;;;;5024050;28;20480;-74
2022/10/03 05:34:18;;;;;;;7.05;3.28;;;8.80;99.90;;;;;;5031474;28;20037;-74
2022/10/03 05:37:11;;;;;;;8.23;3.60;;;8.80;99.90;;;;;;5032132;28;20053;-74
2022/10/03 05:40:18;;;;;;;5.50;2.65;;;8.80;99.90;;;;;;5032464;28;20033;-69
2022/10/03 05:42:51;;;;;;;5.55;3.05;;;8.80;99.90;;;;;;5033748;28;20040;-69
2022/10/03 05:46:01;;;;;;;6.78;2.80;;;8.80;99.90;;;;;;5053712;28;20021;-69
2022/10/03 05:48:54;;;;;;;4.63;3.30;;;8.80;99.90;;;;;;5035992;28;20035;-69
2022/10/03 05:51:32;;;;;;;8.10;4.03;;;8.80;99.90;;;;;;5054551;28;20037;-69
2022/10/03 05:54:16;;;;;;;11.10;3.88;;;8.90;99.90;;;;;;5054280;28;20026;-69
2022/10/03 05:57:09;;;;;;;6.13;2.92;;;8.90;99.90;;;;;;5054344;28;20104;-74
2022/10/03 05:59:53;;;;;;;6.05;3.22;;;8.90;99.90;;;;;;5054140;28;20029;-74
2022/10/03 06:02:54;;;;;;;6.68;3.60;;;8.90;99.90;;;;;;5036045;28;20059;-75
2022/10/03 06:05:26;;;;;;;4.97;3.13;;;8.90;99.90;;;;;;5054217;28;20033;-69
2022/10/03 06:08:00;;;;;;;9.57;3.60;;;8.90;99.90;;;;;;5053905;28;20066;-69
2022/10/03 06:10:38;;;;;;;9.77;3.30;;;8.90;99.90;;;;;;5053724;28;20313;-71
2022/10/03 06:13:10;;;;;;;11.68;4.78;;;8.90;99.90;;;;;;5053675;28;20025;-74
2022/10/03 06:15:53;;;;;;;11.57;5.05;;;8.90;99.90;;;;;;5053925;28;20561;-74
2022/10/03 06:18:57;;;;;;;15.38;7.30;;;9.00;99.90;;;;;;5054004;28;20021;-74
2022/10/03 06:21:50;;;;;;;41.65;15.02;;;8.90;99.90;;;;;;5047115;28;20060;-74
2022/10/03 06:25:04;;;;;;;97.68;41.50;;;9.00;99.90;;;;;;5015245;28;20053;-74
2022/10/03 06:28:01;;;;;;;18.48;6.13;;;9.00;99.90;;;;;;5015404;28;20028;-74
2022/10/03 06:30:54;;;;;;;10.18;4.45;;;9.00;99.90;;;;;;5029476;28;20049;-75
2022/10/03 06:33:22;;;;;;;;;;;9.00;99.90;;;;;;5033339;28;20080;-74
2022/10/03 06:36:12;;;;;;;8.57;3.78;;;9.00;99.90;;;;;;5031547;28;19905;-69
2022/10/03 06:39:11;;;;;;;8.95;3.30;;;9.00;99.90;;;;;;5033041;28;20032;-69
2022/10/03 06:42:14;;;;;;;8.95;4.03;;;9.00;99.90;;;;;;5033732;28;20081;-69
2022/10/03 06:45:10;;;;;;;10.70;4.00;;;9.00;99.90;;;;;;5032071;28;20026;-69
2022/10/03 06:48:05;;;;;;;9.75;4.72;;;9.00;99.90;;;;;;5032856;28;20064;-69
2022/10/03 06:50:45;;;;;;;11.57;4.13;;;9.00;99.90;;;;;;5014448;28;20038;-69
2022/10/03 06:53:53;;;;;;;16.98;6.43;;;9.00;99.90;;;;;;5033316;28;20037;-74
2022/10/03 06:57:25;;;;;;;14.50;4.80;;;9.00;99.90;;;;;;5033645;28;20475;-74
2022/10/03 07:00:03;;;;;;;15.13;4.82;;;9.00;99.90;;;;;;4951390;28;20125;-69
2022/10/03 07:02:37;;;;;;;9.82;5.35;;;9.00;99.90;;;;;;4972653;28;20539;-75
2022/10/03 07:05:21;;;;;;;22.05;8.82;;;9.00;99.90;;;;;;5016618;28;20033;-74
2022/10/03 07:08:36;;;;;;;22.25;8.88;;;9.00;99.90;;;;;;5031895;28;20036;-74
2022/10/03 07:11:20;;;;;;;32.33;8.88;;;8.90;99.90;;;;;;5025246;28;20503;-75
2022/10/03 07:14:08;;;;;;;17.60;6.25;;;8.90;99.90;;;;;;5032357;28;20057;-75
2022/10/03 07:17:18;;;;;;;15.43;5.60;;;8.80;99.90;;;;;;5032562;28;20025;-75
2022/10/03 07:20:13;;;;;;;16.52;6.03;;;8.80;99.90;;;;;;5008783;28;20041;-75
2022/10/03 07:23:12;;;;;;;9.68;3.95;;;8.80;99.90;;;;;;5019506;28;20017;-75
2022/10/03 07:26:15;;;;;;;9.73;3.88;;;8.80;99.90;;;;;;5032422;28;20033;-75
2022/10/03 07:28:59;;;;;;;11.65;5.30;;;8.80;99.90;;;;;;5015967;28;20025;-75
2022/10/03 07:32:02;;;;;;;6.10;3.25;;;8.70;99.90;;;;;;5032262;28;20029;-75
2022/10/03 07:34:40;;;;;;;4.25;3.10;;;8.70;99.90;;;;;;5032344;28;20033;-75
2022/10/03 07:40:58;;;;;;;8.45;3.88;;;8.80;99.90;;;;;;4965689;28;20039;-69
2022/10/03 07:43:48;;;;;;;7.55;3.90;;;8.90;99.90;;;;;;4956076;28;20031;-74
2022/10/03 07:46:41;;;;;;;9.25;4.50;;;8.90;99.90;;;;;;5018502;28;20064;-70
2022/10/03 07:49:25;;;;;;;9.55;3.80;;;9.00;99.90;;;;;;5032762;28;20728;-69
2022/10/03 07:52:11;;;;;;;10.82;3.70;;;9.00;99.90;;;;;;5032755;28;20033;-69
2022/10/03 07:54:57;;;;;;;8.05;3.47;;;9.00;99.90;;;;;;5032902;28;20029;-69
2022/10/03 07:57:50;;;;;;;8.05;3.30;;;9.00;99.90;;;;;;5014966;28;20034;-69
2022/10/03 08:00:28;;;;;;;4.10;2.70;;;9.00;99.90;;;;;;5032594;28;20044;-74
2022/10/03 08:03:27;;;;;;;5.55;3.30;;;9.00;99.90;;;;;;5032737;28;20041;-69
2022/10/03 08:06:12;;;;;;;5.30;3.47;;;8.90;99.90;;;;;;5032537;28;20026;-74
2022/10/03 08:08:56;;;;;;;5.72;2.50;;;8.90;99.90;;;;;;5032860;28;20022;-74
2022/10/03 08:11:47;;;;;;;3.97;2.70;;;8.90;99.90;;;;;;5018038;28;20037;-75
2022/10/03 08:14:44;;;;;;;6.85;3.22;;;9.00;99.90;;;;;;5036118;28;20029;-75
2022/10/03 08:17:53;;;;;;;5.55;2.83;;;9.00;99.90;;;;;;5036348;28;20040;-69
2022/10/03 08:20:27;;;;;;;3.20;2.42;;;9.00;99.90;;;;;;5034707;28;20049;-70
2022/10/03 08:23:47;;;;;;;9.30;2.90;;;9.00;99.90;;;;;;5035548;28;20029;-69
2022/10/03 08:26:24;;;;;;;3.40;2.40;;;9.00;99.90;;;;;;4955024;29;20041;-69
2022/10/03 08:29:07;;;;;;;3.78;2.50;;;9.00;99.90;;;;;;5008380;28;20033;-69
2022/10/03 08:32:03;;;;;;;4.28;2.63;;;9.10;99.90;;;;;;5018171;28;20495;-74
2022/10/03 08:34:54;;;;;;;4.55;2.63;;;9.10;99.90;;;;;;5017998;28;20031;-69
2022/10/03 08:37:58;;;;;;;3.58;2.17;;;9.10;99.90;;;;;;5018070;28;20021;-74
2022/10/03 08:40:35;;;;;;;3.95;2.17;;;9.20;99.90;;;;;;5018036;28;20021;-74
2022/10/03 08:43:09;;;;;;;3.47;2.13;;;9.20;99.90;;;;;;5018093;28;20028;-69
2022/10/03 08:45:46;;;;;;;4.50;3.00;;;9.30;99.90;;;;;;5035562;28;20083;-69
2022/10/03 08:48:50;;;;;;;5.93;2.83;;;9.40;99.90;;;;;;5018148;28;20021;-74
2022/10/03 08:51:43;;;;;;;5.22;3.08;;;9.40;99.90;;;;;;5035524;28;20037;-69
2022/10/03 08:54:45;;;;;;;3.22;2.25;;;9.50;99.90;;;;;;5017688;28;20034;-69
2022/10/03 08:57:40;;;;;;;4.83;2.30;;;9.60;99.90;;;;;;5017759;28;20456;-74
2022/10/03 09:00:22;;;;;;;5.05;2.15;;;9.70;99.90;;;;;;5035571;28;20029;-69
2022/10/03 09:03:25;;;;;;;2.90;1.90;;;9.70;99.90;;;;;;5035464;28;20029;-70
2022/10/03 09:06:09;;;;;;;;;;;9.80;99.90;;;;;;5035916;28;20033;-74
2022/10/03 09:08:55;;;;;;;3.00;1.98;;;9.90;99.90;;;;;;5035469;28;19994;-74
2022/10/03 09:11:45;;;;;;;3.28;1.80;;;10.10;99.90;;;;;;5035242;28;20036;-69
2022/10/03 09:14:31;;;;;;;2.92;2.08;;;10.00;99.90;;;;;;5035388;28;20028;-69
2022/10/03 09:17:05;;;;;;;6.20;1.90;;;10.00;99.90;;;;;;5035152;28;20475;-68
2022/10/03 09:20:02;;;;;;;3.10;1.98;;;10.00;99.90;;;;;;5035265;28;20049;-68
2022/10/03 09:22:53;;;;;;;2.83;2.00;;;10.10;99.90;;;;;;5034594;28;20399;-69
2022/10/03 09:25:43;;;;;;;4.00;1.83;;;10.10;99.90;;;;;;5024909;28;20048;-74
2022/10/03 09:28:43;;;;;;;2.05;1.40;;;9.90;99.90;;;;;;5031276;28;20026;-74
2022/10/03 09:31:08;;;;;;;4.93;2.10;;;9.90;99.90;;;;;;5034045;28;20167;-74
2022/10/03 09:34:07;;;;;;;5.72;1.83;;;9.90;99.90;;;;;;5034251;28;20053;-74
2022/10/03 09:36:39;;;;;;;5.28;2.17;;;9.80;99.90;;;;;;5032882;28;20448;-74
2022/10/03 09:39:26;;;;;;;3.08;1.77;;;9.80;99.90;;;;;;5032749;28;20091;-74
2022/10/03 09:42:06;;;;;;;2.60;1.73;;;9.80;99.90;;;;;;5033957;28;20022;-69
2022/10/03 09:45:15;;;;;;;4.30;2.00;;;9.80;99.90;;;;;;5034295;28;20360;-74
2022/10/03 09:48:11;;;;;;;2.72;1.65;;;9.80;99.90;;;;;;5034523;28;20025;-69
2022/10/03 09:50:52;;;;;;;4.22;2.00;;;9.90;99.90;;;;;;5034409;28;20109;-69
2022/10/03 09:53:56;;;;;;;2.90;1.95;;;9.90;99.90;;;;;;5019857;28;20044;-70
2022/10/03 09:56:24;;;;;;;3.65;1.90;;;9.80;99.90;;;;;;4993626;28;20498;-74
2022/10/03 09:59:10;;;;;;;2.80;1.98;;;9.70;99.90;;;;;;5034293;28;20096;-70
2022/10/03 10:01:50;;;;;;;2.92;1.98;;;9.70;99.90;;;;;;5016420;28;20511;-74
2022/10/03 10:04:21;;;;;;;3.00;1.90;;;9.70;99.90;;;;;;5033992;28;20021;-74
2022/10/03 10:07:06;;;;;;;4.13;2.10;;;9.60;99.90;;;;;;5016342;28;20029;-74
2022/10/03 10:09:55;;;;;;;2.42;1.70;;;9.60;99.90;;;;;;5034193;28;20434;-69
2022/10/03 10:12:42;;;;;;;5.03;1.98;;;9.50;99.90;;;;;;5033934;28;20064;-69
2022/10/03 10:15:38;;;;;;;3.90;2.67;;;9.50;99.90;;;;;;5033851;28;20025;-69
2022/10/03 10:18:39;;;;;;;4.30;1.85;;;9.50;99.90;;;;;;5033810;28;20060;-69
2022/10/03 10:21:38;;;;;;;6.18;2.92;;;9.40;99.90;;;;;;5018718;28;20121;-75
2022/10/03 10:24:25;;;;;;;5.78;2.47;;;9.40;99.90;;;;;;5033745;28;20112;-75
2022/10/03 10:26:56;;;;;;;7.05;2.90;;;9.30;99.90;;;;;;5032438;28;20107;-74
2022/10/03 10:29:28;;;;;;;5.60;2.70;;;9.30;99.90;;;;;;5033625;28;20030;-69
2022/10/03 10:32:31;;;;;;;3.97;2.80;;;9.30;99.90;;;;;;5033571;28;20044;-74
2022/10/03 10:35:31;;;;;;;5.93;2.50;;;9.30;99.90;;;;;;5033056;28;20030;-69
2022/10/03 10:38:11;;;;;;;5.00;2.38;;;9.30;99.90;;;;;;5032965;28;20025;-69
2022/10/03 10:41:16;;;;;;;4.20;2.75;;;9.30;99.90;;;;;;5027256;28;20411;-69
2022/10/03 10:44:17;;;;;;;4.80;2.67;;;9.30;99.90;;;;;;5032020;28;20025;-69
2022/10/03 10:46:45;;;;;;;5.45;2.72;;;9.40;99.90;;;;;;5032239;28;20064;-69
2022/10/03 10:49:48;;;;;;;4.28;2.60;;;9.40;99.90;;;;;;5030844;28;20055;-68
2022/10/03 10:52:32;;;;;;;7.00;2.22;;;9.40;99.90;;;;;;5029723;28;20140;-69
2022/10/03 10:55:17;;;;;;;13.73;5.65;;;9.40;99.90;;;;;;5032380;28;20104;-69
2022/10/03 10:58:20;;;;;;;30.25;10.95;;;9.40;99.90;;;;;;5019378;28;20030;-68
2022/10/03 11:01:10;;;;;;;35.20;17.42;;;9.40;99.90;;;;;;5032093;28;20471;-68
2022/10/03 11:04:19;;;;;;;14.63;7.70;;;9.40;99.90;;;;;;5031108;28;20115;-68
2022/10/03 11:07:02;;;;;;;3.95;2.95;;;9.40;99.90;;;;;;5023089;28;20045;-69
2022/10/03 11:10:22;;;;;;;5.65;3.00;;;9.40;99.90;;;;;;5011291;28;20112;-69
2022/10/03 11:13:26;;;;;;;14.43;6.43;;;9.40;99.90;;;;;;4949720;29;20066;-75
2022/10/03 11:16:22;;;;;;;6.85;3.70;;;9.40;99.90;;;;;;5019796;28;20029;-75
2022/10/03 11:19:25;;;;;;;3.38;2.33;;;9.30;99.90;;;;;;5028655;28;20056;-74
2022/10/03 11:22:40;;;;;;;2.47;2.28;;;9.30;99.90;;;;;;5030346;28;20388;-69
2022/10/03 11:25:29;;;;;;;10.25;6.20;;;9.40;99.90;;;;;;5030219;28;20017;-69
2022/10/03 11:28:25;;;;;;;14.65;7.68;;;9.40;99.90;;;;;;5030868;28;20064;-69
2022/10/03 11:31:03;;;;;;;4.85;3.20;;;9.40;99.90;;;;;;5030773;28;20112;-69
2022/10/03 11:34:13;;;;;;;7.68;4.30;;;9.40;99.90;;;;;;5012614;28;20056;-69
2022/10/03 11:37:01;;;;;;;11.13;4.80;;;9.40;99.90;;;;;;5016960;28;20045;-69
2022/10/03 11:39:38;;;;;;;8.98;4.05;;;9.50;99.90;;;;;;5031057;28;20013;-69
2022/10/03 11:42:27;;;;;;;7.40;3.20;;;9.50;99.90;;;;;;5031582;28;20033;-69
2022/10/03 11:44:55;;;;;;;4.32;2.38;;;9.50;99.90;;;;;;5032533;28;20028;-69
2022/10/03 11:47:41;;;;;;;3.30;2.65;;;9.60;99.90;;;;;;5035106;28;20033;-71
2022/10/03 11:50:13;;;;;;;7.28;3.42;;;9.50;99.90;;;;;;5033818;28;20087;-75
2022/10/03 11:53:10;;;;;;;4.80;3.35;;;9.60;99.90;;;;;;5016935;28;20128;-75
2022/10/03 11:55:54;;;;;;;5.10;3.50;;;9.70;99.90;;;;;;5017458;28;20506;-69
2022/10/03 11:58:43;;;;;;;6.88;2.83;;;9.80;99.90;;;;;;5034975;28;20033;-75
2022/10/03 12:01:42;;;;;;;4.10;2.65;;;9.90;99.90;;;;;;5035501;28;20104;-69
2022/10/03 12:04:17;;;;;;;4.85;2.92;;;10.00;99.90;;;;;;5017565;28;20509;-69
2022/10/03 12:09:41;;;;;;;3.92;2.72;;;10.20;99.90;;;;;;5034799;28;20088;-69
2022/10/03 12:12:35;;;;;;;5.95;2.50;;;10.40;99.90;;;;;;5036025;28;20423;-75
2022/10/03 12:15:16;;;;;;;5.10;2.95;;;10.40;99.90;;;;;;5036004;28;20014;-74
2022/10/03 12:17:54;;;;;;;4.45;2.72;;;10.40;99.90;;;;;;5006066;28;20038;-68
2022/10/03 12:20:27;;;;;;;3.70;2.40;;;10.40;99.90;;;;;;5016977;28;20030;-69
2022/10/03 12:23:15;;;;;;;2.85;2.03;;;10.50;99.90;;;;;;5035027;28;20045;-69
2022/10/03 12:25:44;;;;;;;6.47;2.80;;;10.60;99.90;;;;;;5034482;28;20025;-69
2022/10/03 12:28:37;;;;;;;5.93;2.30;;;10.60;99.90;;;;;;5034580;28;20036;-70
2022/10/03 12:31:12;;;;;;;6.25;2.60;;;10.60;99.90;;;;;;5017162;28;20125;-69
2022/10/03 12:34:05;;;;;;;4.07;2.55;;;10.50;99.90;;;;;;5033812;28;20069;-69
2022/10/03 12:36:39;;;;;;;4.40;2.60;;;10.50;99.90;;;;;;5034434;28;20468;-69
2022/10/03 12:39:27;;;;;;;6.10;3.13;;;10.50;99.90;;;;;;5034409;28;20037;-69
2022/10/03 12:41:53;;;;;;;3.28;2.58;;;10.60;99.90;;;;;;5034953;28;20109;-68
2022/10/03 12:44:44;;;;;;;3.60;2.90;;;10.90;99.90;;;;;;5033373;28;20108;-69
2022/10/03 12:47:49;;;;;;;6.50;3.08;;;11.10;99.90;;;;;;5034011;28;20039;-69
2022/10/03 12:50:37;;;;;;;4.60;2.95;;;11.20;99.90;;;;;;5033935;28;20026;-69
2022/10/03 12:53:15;;;;;;;5.15;2.35;;;11.10;99.90;;;;;;5034155;28;20033;-69
2022/10/03 12:56:05;;;;;;;7.43;2.72;;;11.10;99.90;;;;;;5033918;28;20033;-69
2022/10/03 12:59:02;;;;;;;4.18;2.80;;;11.10;99.90;;;;;;5034396;28;20542;-69
2022/10/03 13:01:27;;;;;;;8.45;2.70;;;11.10;99.90;;;;;;5035094;28;20087;-69
2022/10/03 13:03:59;;;;;;;4.53;2.30;;;11.20;99.90;;;;;;5035121;28;20026;-69
2022/10/03 13:06:32;;;;;;;3.85;2.85;;;11.20;99.90;;;;;;5034827;28;20040;-69
2022/10/03 13:09:23;;;;;;;3.90;2.38;;;11.20;99.90;;;;;;5035318;28;20029;-69
2022/10/03 13:12:33;;;;;;;4.28;2.85;;;11.10;99.90;;;;;;5021716;28;20077;-69
2022/10/03 13:15:23;;;;;;;5.25;2.83;;;11.00;99.90;;;;;;5009746;28;20044;-69
2022/10/03 13:17:57;;;;;;;4.90;3.20;;;11.10;99.90;;;;;;5034902;28;20101;-69
2022/10/03 13:20:29;;;;;;;3.38;3.08;;;11.00;99.90;;;;;;5034459;28;20084;-69
2022/10/03 13:23:29;;;;;;;5.78;2.95;;;11.00;99.90;;;;;;5017017;28;20033;-69
2022/10/03 13:26:20;;;;;;;6.35;3.08;;;11.00;99.90;;;;;;5034648;28;20026;-69
2022/10/03 13:29:24;;;;;;;5.30;3.13;;;11.00;99.90;;;;;;5025262;28;20041;-67
2022/10/03 13:31:54;;;;;;;11.50;5.13;;;11.00;99.90;;;;;;5030716;28;20505;-75
2022/10/03 13:34:26;;;;;;;8.10;4.95;;;11.10;99.90;;;;;;5032632;28;20040;-75
2022/10/03 13:37:05;;;;;;;4.65;3.50;;;11.00;99.90;;;;;;5033716;28;20076;-75
2022/10/03 13:39:45;;;;;;;6.88;3.85;;;11.00;99.90;;;;;;5032633;28;20588;-75
2022/10/03 13:42:45;;;;;;;6.25;3.55;;;10.90;99.90;;;;;;5015448;28;20032;-75
2022/10/03 13:45:18;;;;;;;6.15;4.38;;;10.90;99.90;;;;;;5018505;28;20032;-75
2022/10/03 13:48:11;;;;;;;13.43;7.07;;;11.00;99.90;;;;;;5032711;28;20055;-75
2022/10/03 13:50:52;;;;;;;16.77;7.55;;;11.10;99.90;;;;;;5032345;28;20053;-69
2022/10/03 13:53:36;;;;;;;11.43;7.57;;;11.20;99.90;;;;;;5032751;28;20529;-69
2022/10/03 13:56:28;;;;;;;6.47;3.33;;;11.30;99.90;;;;;;5026207;28;20076;-72
2022/10/03 13:58:54;;;;;;;10.32;3.47;;;11.30;99.90;;;;;;5000607;28;20030;-72
2022/10/03 14:01:34;;;;;;;4.47;3.55;;;11.40;99.90;;;;;;5025029;28;20442;-66
2022/10/03 14:04:21;;;;;;;3.88;3.42;;;11.50;99.90;;;;;;5033241;28;20022;-72
2022/10/03 14:07:21;;;;;;;4.55;3.42;;;11.60;99.90;;;;;;5032421;28;20292;-72
2022/10/03 14:10:18;;;;;;;4.82;3.60;;;11.80;99.90;;;;;;5032517;28;20036;-71
2022/10/03 14:13:22;;;;;;;3.67;3.33;;;11.90;99.90;;;;;;5012627;28;20038;-66
2022/10/03 14:16:20;;;;;;;4.57;3.28;;;11.80;99.90;;;;;;4991839;28;20120;-67
2022/10/03 14:19:11;;;;;;;4.30;3.22;;;11.70;99.90;;;;;;5021169;28;20026;-69
2022/10/03 14:21:46;;;;;;;4.70;2.95;;;11.70;99.90;;;;;;5022765;28;20049;-66
2022/10/03 14:24:35;;;;;;;3.88;2.78;;;11.60;99.90;;;;;;5033422;28;20441;-66
2022/10/03 14:27:19;;;;;;;2.47;2.17;;;11.70;99.90;;;;;;5033390;28;20099;-66
2022/10/03 14:30:09;;;;;;;3.17;2.67;;;11.50;99.90;;;;;;5032846;28;20108;-72
2022/10/03 14:32:44;;;;;;;3.67;2.30;;;11.50;99.90;;;;;;5033142;28;20495;-66
2022/10/03 14:35:54;;;;;;;3.03;2.75;;;11.50;99.90;;;;;;5015369;28;20399;-67
2022/10/03 14:41:31;;;;;;;2.85;2.22;;;11.70;99.90;;;;;;5029721;28;20045;-66
2022/10/03 14:44:07;;;;;;;5.85;4.22;;;11.60;99.90;;;;;;5023837;28;20022;-72
2022/10/03 14:46:41;;;;;;;3.63;2.85;;;11.70;99.90;;;;;;5032184;28;20024;-72
2022/10/03 14:49:16;;;;;;;3.08;2.65;;;11.70;99.90;;;;;;5029481;28;20029;-71
2022/10/03 14:51:48;;;;;;;3.80;2.75;;;11.60;99.90;;;;;;5032651;28;20545;-66